< < Back
Terminal Aerodrome Forecast


Current Version              Previous Versions:   1  2  3  4  5  6  7  8  9  

Terminal Aerodrome Forecast

829
FTUS42 KFFC 260330 AAC
TAFATL
TAF AMD
KATL 260330Z 2604/2706 29004KT P6SM SCT070 BKN120
     FM260600 23004KT P6SM SCT120
     FM261600 22006KT P6SM SCT045 PROB30 2619/2623 4SM -TSRA BR
      BKN035CB=

Latest METAR

796
SAUS70 KWBC 260400 RRH
MTRATL
METAR KATL 260352Z 32004KT 10SM SCT070 BKN100 26/23 A3008 RMK AO2 SLP172
T02560233


USA.gov is the U.S. government's official web portal to all federal, state and local government web resources and services.